Time;durP1;ratioP1;P1;durP2;ratioP2;P2;SDS_P1;SDS_P2;PMS_P1;PMS_P2;Temp;Humidity;BMP_temperature;BMP_pressure;BME280_temperature;BME280_humidity;BME280_pressure;Samples;Min_cycle;Max_cycle;Signal;HPM_P1;HPM_P2
2022/10/21 00:01:26;;;;;;;;;;;;;;;20.77;66.83;99460.19;7316426;19;129039;-38
2022/10/21 00:03:51;;;;;;;;;;;;;;;20.91;66.58;99483.25;7314917;19;130082;-39
2022/10/21 00:06:16;;;;;;;;;;;;;;;20.93;65.94;99475.28;7316816;19;129461;-38
2022/10/21 00:08:41;;;;;;;;;;;;;;;20.88;66.56;99488.78;7312717;19;129877;-39
2022/10/21 00:11:07;;;;;;;;;;;;;;;20.92;66.58;99489.31;7314240;19;129056;-37
2022/10/21 00:13:34;;;;;;;;;;;;;;;20.93;66.26;99485.75;7315944;19;130519;-38
2022/10/21 00:16:05;;;;;;;;;;;;;;;20.93;66.23;99480.50;7315747;19;131435;-40
2022/10/21 00:18:30;;;;;;;;;;;;;;;20.90;66.77;99491.25;7313912;19;132476;-39
2022/10/21 00:20:56;;;;;;;;;;;;;;;20.92;66.64;99490.16;7314821;19;129611;-39
2022/10/21 00:23:21;;;;;;;;;;;;;;;20.84;66.65;99479.53;7314953;19;129214;-39
2022/10/21 00:25:46;;;;;;;;;;;;;;;20.90;66.19;99478.19;7316363;19;131153;-39
2022/10/21 00:28:11;;;;;;;;;;;;;;;20.87;66.42;99476.69;7311352;19;130538;-39
2022/10/21 00:30:41;;;;;;;;;;;;;;;20.85;66.42;99473.38;7313756;19;129268;-36
2022/10/21 00:33:06;;;;;;;;;;;;;;;20.88;66.21;99473.09;7315000;19;129634;-37
2022/10/21 00:35:32;;;;;;;;;;;;;;;20.88;66.76;99473.09;7314819;19;130140;-37
2022/10/21 00:37:57;;;;;;;;;;;;;;;20.87;66.11;99458.38;7312153;19;129837;-38
2022/10/21 00:40:22;;;;;;;;;;;;;;;20.90;66.61;99462.50;7314732;19;129155;-39
2022/10/21 00:42:47;;;;;;;;;;;;;;;20.90;66.21;99458.09;7314732;19;129131;-39
2022/10/21 00:45:31;;;;;;;;;;;;;;;20.89;66.10;99453.03;7315009;19;130104;-39
2022/10/21 00:48:01;;;;;;;;;;;;;;;20.91;66.20;99451.91;7311041;19;129717;-40
2022/10/21 00:50:38;;;;;;;;;;;;;;;20.88;66.68;99451.34;7312899;19;128894;-40
2022/10/21 00:53:05;;;;;;;;;;;;;;;20.86;66.11;99451.50;7314709;19;129297;-37
2022/10/21 00:55:33;;;;;;;;;;;;;;;20.90;66.15;99455.50;7314736;19;131302;-38
2022/10/21 00:57:59;;;;;;;;;;;;;;;20.86;66.11;99448.88;7312322;19;130378;-40
2022/10/21 01:00:24;;;;;;;;;;;;;;;20.86;66.13;99438.44;7313867;19;129042;-38
2022/10/21 01:02:49;;;;;;;;;;;;;;;20.89;66.71;99442.56;7314244;19;129179;-38
2022/10/21 01:05:16;;;;;;;;;;;;;;;20.90;66.66;99421.53;7314389;19;131217;-39
2022/10/21 01:07:41;;;;;;;;;;;;;;;20.87;66.29;99413.97;7312441;19;129898;-40
2022/10/21 01:10:10;;;;;;;;;;;;;;;20.87;66.43;99403.53;7309361;19;145848;-38
2022/10/21 01:12:47;;;;;;;;;;;;;;;20.85;66.37;99400.22;7311997;19;128899;-40
2022/10/21 01:15:32;;;;;;;;;;;;;;;20.85;66.25;99374.09;7313984;19;129127;-38
2022/10/21 01:18:06;;;;;;;;;;;;;;;20.87;66.37;99380.00;7310869;19;130509;-38
2022/10/21 01:20:35;;;;;;;;;;;;;;;20.87;66.19;99390.47;7314244;19;129948;-39
2022/10/21 01:23:02;;;;;;;;;;;;;;;20.88;66.43;99376.41;7314489;19;130002;-40
2022/10/21 01:25:40;;;;;;;;;;;;;;;20.88;66.59;99373.81;7314342;19;130832;-40
2022/10/21 01:28:20;;;;;;;;;;;;;;;20.87;66.89;99361.72;7311469;19;131452;-38
2022/10/21 01:30:52;;;;;;;;;;;;;;;20.87;66.71;99356.47;7313587;19;129752;-40
2022/10/21 01:33:17;;;;;;;;;;;;;;;20.85;66.35;99353.19;7313097;19;129231;-39
2022/10/21 01:35:48;;;;;;;;;;;;;;;20.87;66.29;99355.66;7314692;19;130324;-39
2022/10/21 01:38:32;;;;;;;;;;;;;;;20.89;66.22;99344.06;7310388;19;131061;-40
2022/10/21 01:41:09;;;;;;;;;;;;;;;20.86;66.26;99333.13;7313322;19;129234;-40
2022/10/21 01:43:34;;;;;;;;;;;;;;;20.85;66.25;99339.28;7311457;19;129115;-40
2022/10/21 01:46:02;;;;;;;;;;;;;;;20.84;66.12;99333.22;7313434;19;130270;-39
2022/10/21 01:48:29;;;;;;;;;;;;;;;20.85;66.57;99323.59;7310662;19;130000;-39
2022/10/21 01:51:00;;;;;;;;;;;;;;;20.85;66.28;99321.00;7314613;19;129749;-40
2022/10/21 01:53:27;;;;;;;;;;;;;;;20.84;66.47;99325.38;7311778;19;129062;-39
2022/10/21 01:55:54;;;;;;;;;;;;;;;20.85;66.74;99324.44;7312432;19;130484;-39
2022/10/21 01:58:21;;;;;;;;;;;;;;;20.86;66.51;99302.56;7308954;19;130339;-38
2022/10/21 02:00:48;;;;;;;;;;;;;;;20.85;66.88;99293.09;7313665;19;129664;-39
2022/10/21 02:03:16;;;;;;;;;;;;;;;20.87;66.26;99299.00;7312122;19;129067;-39
2022/10/21 02:05:41;;;;;;;;;;;;;;;20.85;67.01;99308.75;7312285;19;130236;-37
2022/10/21 02:08:07;;;;;;;;;;;;;;;20.89;66.59;99312.72;7309803;19;129859;-37
2022/10/21 02:10:34;;;;;;;;;;;;;;;20.87;66.75;99306.00;7312534;19;129340;-40
2022/10/21 02:13:01;;;;;;;;;;;;;;;20.86;66.52;99299.94;7311942;19;129544;-39
2022/10/21 02:15:28;;;;;;;;;;;;;;;20.86;66.64;99291.31;7312419;19;130281;-40
2022/10/21 02:18:01;;;;;;;;;;;;;;;20.86;66.55;99301.75;7309363;19;130316;-38
2022/10/21 02:20:29;;;;;;;;;;;;;;;20.78;66.89;99284.16;7313793;19;129852;-40
2022/10/21 02:22:55;;;;;;;;;;;;;;;20.87;66.58;99293.78;7312692;19;129188;-40
2022/10/21 02:25:22;;;;;;;;;;;;;;;20.89;66.23;99280.56;7313057;19;130138;-39
2022/10/21 02:27:48;;;;;;;;;;;;;;;20.87;66.47;99298.16;7309212;19;131023;-37
2022/10/21 02:30:13;;;;;;;;;;;;;;;20.89;66.16;99288.41;7312843;19;128974;-39
2022/10/21 02:32:44;;;;;;;;;;;;;;;20.87;66.66;99280.72;7310461;19;129544;-38
2022/10/21 02:35:09;;;;;;;;;;;;;;;20.85;66.64;99290.47;7310817;19;130254;-40
2022/10/21 02:37:39;;;;;;;;;;;;;;;20.89;66.09;99291.00;7309492;19;131262;-39
2022/10/21 02:40:12;;;;;;;;;;;;;;;20.86;66.81;99312.22;7311222;19;129395;-38
2022/10/21 02:42:42;;;;;;;;;;;;;;;20.86;66.78;99318.25;7312942;19;130371;-37
2022/10/21 02:45:08;;;;;;;;;;;;;;;20.76;66.22;99291.31;7310939;19;130006;-37
2022/10/21 02:47:34;;;;;;;;;;;;;;;20.90;66.38;99292.66;7308871;19;130437;-39
2022/10/21 02:50:00;;;;;;;;;;;;;;;20.86;66.75;99276.44;7311147;19;129023;-39
2022/10/21 02:52:25;;;;;;;;;;;;;;;20.87;66.06;99288.56;7311791;19;129391;-39
2022/10/21 02:54:50;;;;;;;;;;;;;;;20.86;66.76;99313.00;7310208;19;129514;-40
2022/10/21 02:57:15;;;;;;;;;;;;;;;20.81;66.34;99299.53;7308430;19;130318;-37
2022/10/21 02:59:40;;;;;;;;;;;;;;;20.87;66.43;99303.41;7308861;19;129418;-38
2022/10/21 03:02:06;;;;;;;;;;;;;;;20.88;66.27;99294.56;7310496;19;128640;-39
2022/10/21 03:04:31;;;;;;;;;;;;;;;20.87;66.70;99309.44;7310006;19;130877;-38
2022/10/21 03:06:56;;;;;;;;;;;;;;;20.86;66.25;99302.56;7310041;19;129792;-40
2022/10/21 03:09:21;;;;;;;;;;;;;;;20.87;66.34;99299.00;7309578;19;129312;-37
2022/10/21 03:11:46;;;;;;;;;;;;;;;20.85;66.46;99295.69;7310578;19;129292;-39
2022/10/21 03:14:12;;;;;;;;;;;;;;;20.86;66.10;99292.09;7310345;19;129472;-39
2022/10/21 03:16:37;;;;;;;;;;;;;;;20.85;66.82;99277.41;7309536;19;130239;-37
2022/10/21 03:19:02;;;;;;;;;;;;;;;20.84;66.21;99278.34;7309497;19;129284;-39
2022/10/21 03:21:27;;;;;;;;;;;;;;;20.85;66.07;99277.41;7309351;19;129219;-38
2022/10/21 03:23:53;;;;;;;;;;;;;;;20.83;66.86;99278.50;7310381;19;129088;-39
2022/10/21 03:26:18;;;;;;;;;;;;;;;20.83;66.77;99287.16;7310345;19;130161;-38
2022/10/21 03:28:43;;;;;;;;;;;;;;;20.87;66.43;99290.31;7308440;19;129318;-40
2022/10/21 03:31:08;;;;;;;;;;;;;;;20.87;66.46;99299.00;7309771;19;130373;-37
2022/10/21 03:33:34;;;;;;;;;;;;;;;20.84;66.08;99304.47;7309082;19;130288;-37
2022/10/21 03:35:59;;;;;;;;;;;;;;;20.85;66.48;99310.53;7310543;19;130335;-40
2022/10/21 03:38:24;;;;;;;;;;;;;;;20.84;66.76;99283.59;7307378;19;128870;-39
2022/10/21 03:40:50;;;;;;;;;;;;;;;20.85;66.22;99279.19;7311379;19;129213;-40
2022/10/21 03:43:15;;;;;;;;;;;;;;;20.85;66.33;99266.97;7308274;19;129466;-40
2022/10/21 03:45:40;;;;;;;;;;;;;;;20.85;66.81;99264.34;7309785;19;129541;-39
2022/10/21 03:48:06;;;;;;;;;;;;;;;20.77;66.53;99249.38;7308177;19;129473;-39
2022/10/21 03:50:31;;;;;;;;;;;;;;;20.80;66.28;99250.88;7304644;19;129220;-38
2022/10/21 03:52:58;;;;;;;;;;;;;;;20.80;66.41;99252.66;7307927;19;130156;-38
2022/10/21 03:55:24;;;;;;;;;;;;;;;20.82;66.43;99259.41;7312060;19;130663;-38
2022/10/21 03:57:49;;;;;;;;;;;;;;;20.82;66.93;99274.25;7310611;19;129612;-39
2022/10/21 04:00:15;;;;;;;;;;;;;;;20.77;66.25;99266.84;7305050;19;129681;-38
2022/10/21 04:02:40;;;;;;;;;;;;;;;20.79;66.20;99264.94;7309316;19;130621;-37
2022/10/21 04:05:05;;;;;;;;;;;;;;;20.80;66.16;99261.34;7311035;19;131776;-38
2022/10/21 04:07:31;;;;;;;;;;;;;;;20.79;67.15;99245.81;7308423;19;129475;-38
2022/10/21 04:09:56;;;;;;;;;;;;;;;20.83;66.31;99241.94;7308947;19;129125;-40
2022/10/21 04:12:21;;;;;;;;;;;;;;;20.83;66.27;99221.84;7309736;19;130067;-38
2022/10/21 04:14:46;;;;;;;;;;;;;;;20.83;66.39;99231.47;7310293;19;129548;-38
2022/10/21 04:17:11;;;;;;;;;;;;;;;20.82;66.43;99241.13;7309720;19;130266;-40
2022/10/21 04:19:37;;;;;;;;;;;;;;;20.85;66.44;99234.78;7307469;19;130703;-39
2022/10/21 04:22:02;;;;;;;;;;;;;;;20.82;66.48;99235.91;7308796;19;130266;-38
2022/10/21 04:24:27;;;;;;;;;;;;;;;20.80;66.71;99239.59;7310005;19;130287;-38
2022/10/21 04:26:52;;;;;;;;;;;;;;;20.80;66.58;99239.59;7309071;19;129745;-38
2022/10/21 04:29:18;;;;;;;;;;;;;;;20.82;66.95;99232.44;7309622;19;129081;-40
2022/10/21 04:31:43;;;;;;;;;;;;;;;20.83;66.27;99234.91;7308204;19;131422;-36
2022/10/21 04:34:09;;;;;;;;;;;;;;;20.86;66.06;99236.44;7309915;19;131217;-40
2022/10/21 04:36:34;;;;;;;;;;;;;;;20.81;66.33;99239.47;7308018;19;129159;-40
2022/10/21 04:38:59;;;;;;;;;;;;;;;20.83;66.73;99237.53;7307031;19;131108;-38
2022/10/21 04:41:24;;;;;;;;;;;;;;;20.81;66.95;99241.25;7307698;19;130362;-37
2022/10/21 04:43:50;;;;;;;;;;;;;;;20.81;66.33;99213.31;7307660;19;130263;-39
2022/10/21 04:46:15;;;;;;;;;;;;;;;20.81;66.56;99215.94;7309324;19;129462;-39
2022/10/21 04:48:41;;;;;;;;;;;;;;;20.79;67.14;99223.13;7312082;19;129242;-38
2022/10/21 04:51:06;;;;;;;;;;;;;;;20.80;66.70;99218.69;7315351;19;130109;-39
2022/10/21 04:53:32;;;;;;;;;;;;;;;20.81;66.79;99215.94;7313300;19;129852;-38
2022/10/21 04:55:57;;;;;;;;;;;;;;;20.81;66.30;99209.91;7315041;19;128994;-40
2022/10/21 04:58:22;;;;;;;;;;;;;;;20.79;67.05;99196.16;7312674;19;128946;-38
2022/10/21 05:00:48;;;;;;;;;;;;;;;20.81;66.42;99213.31;7314127;19;131122;-39
2022/10/21 05:03:13;;;;;;;;;;;;;;;20.83;66.39;99200.94;7314082;19;130544;-39
2022/10/21 05:05:38;;;;;;;;;;;;;;;20.83;66.36;99206.19;7314033;19;129247;-38
2022/10/21 05:08:04;;;;;;;;;;;;;;;20.82;66.29;99204.53;7313337;19;129621;-39
2022/10/21 05:10:29;;;;;;;;;;;;;;;20.83;66.33;99197.50;7313109;19;130514;-38
2022/10/21 05:12:56;;;;;;;;;;;;;;;20.80;66.34;99193.41;7312856;19;130313;-38
2022/10/21 05:15:21;;;;;;;;;;;;;;;20.77;66.72;99192.88;7313389;19;129042;-39
2022/10/21 05:17:46;;;;;;;;;;;;;;;20.75;66.95;99177.34;7312161;19;130001;-37
2022/10/21 05:20:11;;;;;;;;;;;;;;;20.82;66.24;99169.75;7310969;19;131032;-40
2022/10/21 05:22:37;;;;;;;;;;;;;;;20.72;66.40;99168.00;7305818;19;129270;-38
2022/10/21 05:25:02;;;;;;;;;;;;;;;20.82;66.67;99191.47;7312992;19;129185;-38
2022/10/21 05:27:27;;;;;;;;;;;;;;;20.84;66.47;99180.88;7313481;19;128911;-40
2022/10/21 05:29:52;;;;;;;;;;;;;;;20.83;66.31;99177.44;7305919;19;130793;-40
2022/10/21 05:32:18;;;;;;;;;;;;;;;20.84;66.38;99173.03;7310784;19;130880;-40
2022/10/21 05:34:43;;;;;;;;;;;;;;;20.82;66.55;99160.13;7314111;19;129323;-37
2022/10/21 05:37:08;;;;;;;;;;;;;;;20.83;66.85;99167.00;7313101;19;129777;-38
2022/10/21 05:39:33;;;;;;;;;;;;;;;20.81;66.52;99168.13;7310316;19;129138;-38
2022/10/21 05:41:59;;;;;;;;;;;;;;;20.83;66.14;99167.00;7311660;19;130488;-40
2022/10/21 05:44:24;;;;;;;;;;;;;;;20.79;67.05;99160.44;7313555;19;129385;-38
2022/10/21 05:46:49;;;;;;;;;;;;;;;20.82;66.75;99162.75;7312364;19;129515;-38
2022/10/21 05:49:14;;;;;;;;;;;;;;;20.81;66.76;99163.69;7311988;19;130176;-39
2022/10/21 05:51:39;;;;;;;;;;;;;;;20.81;66.13;99163.69;7312471;19;129428;-37
2022/10/21 05:54:05;;;;;;;;;;;;;;;20.83;66.65;99159.16;7313297;19;128955;-37
2022/10/21 05:56:31;;;;;;;;;;;;;;;20.71;66.61;99155.06;7313460;19;129168;-39
2022/10/21 05:58:56;;;;;;;;;;;;;;;20.80;66.74;99164.66;7309612;19;129534;-40
2022/10/21 06:01:21;;;;;;;;;;;;;;;20.80;66.91;99175.13;7313394;19;129209;-39
2022/10/21 06:03:46;;;;;;;;;;;;;;;20.77;67.06;99178.03;7312640;19;129630;-39
2022/10/21 06:06:12;;;;;;;;;;;;;;;20.79;66.32;99170.88;7313388;19;128951;-39
2022/10/21 06:08:40;;;;;;;;;;;;;;;20.80;66.91;99164.66;7309182;19;130183;-39
2022/10/21 06:11:07;;;;;;;;;;;;;;;20.73;66.35;99158.38;7313961;19;129315;-37
2022/10/21 06:13:32;;;;;;;;;;;;;;;20.83;66.25;99172.22;7314552;19;129418;-38
2022/10/21 06:15:58;;;;;;;;;;;;;;;20.78;66.29;99171.81;7313258;19;128967;-40
2022/10/21 06:18:23;;;;;;;;;;;;;;;20.72;66.37;99157.53;7311568;19;129203;-38
2022/10/21 06:20:48;;;;;;;;;;;;;;;20.82;66.24;99165.34;7312257;19;129284;-38
2022/10/21 06:23:15;;;;;;;;;;;;;;;20.81;66.21;99163.69;7313563;19;130199;-40
2022/10/21 06:25:40;;;;;;;;;;;;;;;20.80;66.97;99176.91;7312646;19;129346;-40
2022/10/21 06:28:05;;;;;;;;;;;;;;;20.81;66.68;99179.38;7310846;19;129392;-40
2022/10/21 06:30:31;;;;;;;;;;;;;;;20.81;66.71;99168.91;7311872;19;129393;-38
2022/10/21 06:32:56;;;;;;;;;;;;;;;20.82;66.71;99172.34;7313274;19;129021;-39
2022/10/21 06:35:21;;;;;;;;;;;;;;;20.84;66.65;99173.03;7313021;19;129336;-38
2022/10/21 06:37:46;;;;;;;;;;;;;;;20.84;66.90;99178.28;7310719;19;130310;-37
2022/10/21 06:40:12;;;;;;;;;;;;;;;20.80;66.49;99187.34;7309927;19;129820;-39
2022/10/21 06:42:37;;;;;;;;;;;;;;;20.79;66.52;99185.72;7312458;19;130263;-39
2022/10/21 06:45:02;;;;;;;;;;;;;;;20.77;66.61;99186.66;7312615;19;128742;-39
2022/10/21 06:47:28;;;;;;;;;;;;;;;20.81;66.16;99183.78;7310844;19;131321;-38
2022/10/21 06:49:53;;;;;;;;;;;;;;;20.81;66.42;99186.41;7312315;19;130103;-37
2022/10/21 06:52:18;;;;;;;;;;;;;;;20.83;66.57;99184.44;7311962;19;129987;-40
2022/10/21 06:54:44;;;;;;;;;;;;;;;20.80;66.38;99193.41;7311930;19;129421;-39
2022/10/21 06:57:09;;;;;;;;;;;;;;;20.77;66.32;99183.25;7310980;19;130074;-39
2022/10/21 06:59:34;;;;;;;;;;;;;;;20.77;66.91;99198.94;7309312;19;131063;-39
2022/10/21 07:01:59;;;;;;;;;;;;;;;20.79;66.25;99197.00;7311067;19;129362;-38
2022/10/21 07:04:25;;;;;;;;;;;;;;;20.67;66.89;99177.25;7310854;19;129271;-40
2022/10/21 07:06:50;;;;;;;;;;;;;;;20.77;66.46;99187.66;7310893;19;129103;-40
2022/10/21 07:09:15;;;;;;;;;;;;;;;20.77;66.56;99187.66;7307878;19;130421;-39
2022/10/21 07:11:41;;;;;;;;;;;;;;;20.79;66.37;99191.78;7309905;19;129204;-39
2022/10/21 07:14:06;;;;;;;;;;;;;;;20.78;66.39;99205.78;7310835;19;129237;-38
2022/10/21 07:16:35;;;;;;;;;;;;;;;20.82;66.49;99196.72;7311072;19;130967;-38
2022/10/21 07:19:00;;;;;;;;;;;;;;;20.81;66.16;99200.25;7310795;19;130547;-39
2022/10/21 07:21:27;;;;;;;;;;;;;;;20.79;66.35;99180.50;7310181;19;129142;-38
2022/10/21 07:23:53;;;;;;;;;;;;;;;20.81;66.50;99174.13;7311396;19;129567;-39
2022/10/21 07:26:20;;;;;;;;;;;;;;;20.80;66.49;99174.28;7311356;19;129621;-39
2022/10/21 07:28:46;;;;;;;;;;;;;;;20.81;66.09;99163.69;7308758;19;130567;-39
2022/10/21 07:31:13;;;;;;;;;;;;;;;20.76;66.62;99168.53;7311044;19;129467;-40
2022/10/21 07:33:38;;;;;;;;;;;;;;;20.77;66.75;99178.03;7309885;19;129226;-38
2022/10/21 07:36:08;;;;;;;;;;;;;;;20.80;66.91;99167.28;7311096;19;130254;-37
2022/10/21 07:38:33;;;;;;;;;;;;;;;20.84;66.21;99173.84;7308011;19;129245;-36
2022/10/21 07:40:59;;;;;;;;;;;;;;;20.78;66.42;99174.44;7309942;19;128903;-38
2022/10/21 07:43:24;;;;;;;;;;;;;;;20.68;66.72;99152.75;7309476;19;130291;-38
2022/10/21 07:45:49;;;;;;;;;;;;;;;20.78;66.24;99177.03;7309693;19;130968;-37
2022/10/21 07:48:15;;;;;;;;;;;;;;;20.82;66.93;99170.59;7307137;19;131041;-39
2022/10/21 07:50:40;;;;;;;;;;;;;;;20.78;66.17;99169.22;7308466;19;129261;-39
2022/10/21 07:53:05;;;;;;;;;;;;;;;20.76;66.53;99165.91;7307193;19;129860;-38
2022/10/21 07:55:30;;;;;;;;;;;;;;;20.76;66.51;99170.34;7309843;19;129442;-37
2022/10/21 07:57:56;;;;;;;;;;;;;;;20.77;66.76;99166.75;7306841;19;130416;-39
2022/10/21 08:00:21;;;;;;;;;;;;;;;20.80;66.57;99172.50;7306015;19;130024;-39
2022/10/21 08:02:46;;;;;;;;;;;;;;;20.78;66.10;99171.81;7309202;19;129097;-38
2022/10/21 08:05:11;;;;;;;;;;;;;;;20.77;66.90;99167.56;7310512;19;130531;-39
2022/10/21 08:07:37;;;;;;;;;;;;;;;20.76;66.92;99155.47;7307441;19;130835;-38
2022/10/21 08:10:03;;;;;;;;;;;;;;;20.79;66.47;99160.44;7307257;19;130256;-39
2022/10/21 08:12:28;;;;;;;;;;;;;;;20.79;67.08;99165.66;7308203;19;129853;-38
2022/10/21 08:14:53;;;;;;;;;;;;;;;20.80;67.00;99162.06;7308688;19;129984;-38
2022/10/21 08:17:18;;;;;;;;;;;;;;;20.76;66.49;99170.34;7308118;19;130440;-40
2022/10/21 08:19:44;;;;;;;;;;;;;;;20.77;66.92;99156.28;7305630;19;130057;-38
2022/10/21 08:22:10;;;;;;;;;;;;;;;20.80;66.83;99151.59;7315667;19;128933;-38
2022/10/21 08:24:35;;;;;;;;;;;;;;;20.77;66.58;99157.13;7316724;19;130961;-40
2022/10/21 08:27:00;;;;;;;;;;;;;;;20.78;66.90;99148.31;7315324;19;130200;-39
2022/10/21 08:29:25;;;;;;;;;;;;;;;20.67;66.74;99140.69;7314647;19;128813;-37
2022/10/21 08:31:51;;;;;;;;;;;;;;;20.75;66.99;99153.84;7315138;19;129497;-38
2022/10/21 08:34:16;;;;;;;;;;;;;;;20.77;66.53;99146.69;7316901;19;130601;-39
2022/10/21 08:36:41;;;;;;;;;;;;;;;20.77;66.31;99146.69;7314279;19;129569;-40
2022/10/21 08:39:07;;;;;;;;;;;;;;;20.77;66.59;99146.69;7314181;19;129261;-38
2022/10/21 08:41:42;;;;;;;;;;;;;;;20.74;66.72;99137.31;7315499;19;129526;-39
2022/10/21 08:44:13;;;;;;;;;;;;;;;20.74;67.16;99132.09;7316112;19;130976;-38
2022/10/21 08:46:43;;;;;;;;;;;;;;;20.74;66.77;99121.66;7314065;19;131615;-37
2022/10/21 08:49:27;;;;;;;;;;;;;;;20.72;66.68;99117.56;7314524;19;130888;-38
2022/10/21 08:52:08;;;;;;;;;;;;;;;20.76;66.74;99116.28;7313066;19;129603;-40
2022/10/21 08:54:36;;;;;;;;;;;;;;;20.79;66.26;99118.63;7314562;19;130979;-39
2022/10/21 08:57:01;;;;;;;;;;;;;;;20.79;66.68;99117.78;7313743;19;129697;-39
2022/10/21 08:59:27;;;;;;;;;;;;;;;20.80;66.77;99115.03;7314506;19;129040;-39
2022/10/21 09:02:18;;;;;;;;;;;;;;;20.80;66.44;99101.97;7314293;19;129073;-36
2022/10/21 09:05:07;;;;;;;;;;;;;;;20.80;66.76;99103.75;7314641;19;130861;-40
2022/10/21 09:07:51;;;;;;;;;;;;;;;20.75;67.10;99096.34;7312499;19;130146;-38
2022/10/21 09:10:34;;;;;;;;;;;;;;;20.77;66.38;99100.47;7314276;19;129154;-39
2022/10/21 09:13:18;;;;;;;;;;;;;;;20.73;66.74;99098.28;7313245;19;129779;-40
2022/10/21 09:15:52;;;;;;;;;;;;;;;20.77;66.97;99094.44;7314440;19;129147;-38
2022/10/21 09:18:25;;;;;;;;;;;;;;;20.77;66.73;99093.59;7311778;19;130391;-38
2022/10/21 09:21:04;;;;;;;;;;;;;;;20.75;67.02;99091.13;7313552;19;129044;-37
2022/10/21 09:23:38;;;;;;;;;;;;;;;20.77;66.37;99099.66;7315773;19;130207;-38
2022/10/21 09:26:22;;;;;;;;;;;;;;;20.72;66.99;99089.63;7315226;19;130235;-39
2022/10/21 09:28:47;;;;;;;;;;;;;;;20.73;66.97;99085.22;7312089;19;129625;-38
2022/10/21 09:31:17;;;;;;;;;;;;;;;20.77;66.91;99079.56;7313236;19;129153;-37
2022/10/21 09:33:47;;;;;;;;;;;;;;;20.77;66.62;99089.22;7312559;19;129335;-39
2022/10/21 09:36:17;;;;;;;;;;;;;;;20.79;66.58;99087.28;7312584;19;129574;-37
2022/10/21 09:38:46;;;;;;;;;;;;;;;20.75;66.37;99080.69;7311969;19;129602;-41
2022/10/21 09:41:15;;;;;;;;;;;;;;;20.64;66.60;99052.16;7311040;19;129273;-38
2022/10/21 09:43:40;;;;;;;;;;;;;;;20.73;66.31;99085.22;7313434;19;129197;-41
2022/10/21 09:46:05;;;;;;;;;;;;;;;20.78;66.43;99083.00;7311661;19;129484;-38
2022/10/21 09:48:37;;;;;;;;;;;;;;;20.79;66.41;99086.44;7311038;19;129688;-39
2022/10/21 09:51:09;;;;;;;;;;;;;;;20.77;66.53;99078.75;7313500;19;129148;-40
2022/10/21 09:53:43;;;;;;;;;;;;;;;20.80;66.61;99078.47;7313639;19;129154;-40
2022/10/21 09:56:12;;;;;;;;;;;;;;;20.77;66.96;99083.97;7312745;19;130153;-40
2022/10/21 09:58:37;;;;;;;;;;;;;;;20.75;66.43;99075.47;7308767;19;132419;-39
2022/10/21 10:01:04;;;;;;;;;;;;;;;20.78;66.71;99080.38;7311509;19;129518;-40
2022/10/21 10:03:29;;;;;;;;;;;;;;;20.77;66.45;99077.94;7311688;19;129405;-41
2022/10/21 10:05:55;;;;;;;;;;;;;;;20.64;66.77;99073.06;7312787;19;130380;-39
2022/10/21 10:08:23;;;;;;;;;;;;;;;20.73;67.03;99080.00;7308741;19;129621;-35
2022/10/21 10:10:48;;;;;;;;;;;;;;;20.75;66.57;99075.47;7314562;19;129237;-38
2022/10/21 10:13:18;;;;;;;;;;;;;;;20.77;66.73;99080.53;7312053;19;129297;-39
2022/10/21 10:15:43;;;;;;;;;;;;;;;20.80;66.33;99078.47;7313229;19;130836;-40
2022/10/21 10:18:21;;;;;;;;;;;;;;;20.79;66.55;99073.38;7310360;19;129778;-36
2022/10/21 10:21:02;;;;;;;;;;;;;;;20.76;66.71;99078.91;7310983;19;129776;-39
2022/10/21 10:23:27;;;;;;;;;;;;;;;20.76;66.79;99073.69;7312948;19;128959;-38
2022/10/21 10:25:52;;;;;;;;;;;;;;;20.71;66.55;99074.94;7311117;19;129887;-38
2022/10/21 10:28:21;;;;;;;;;;;;;;;20.77;66.70;99070.09;7309368;19;130468;-40
2022/10/21 10:30:48;;;;;;;;;;;;;;;20.76;67.02;99061.41;7311117;19;129534;-38
2022/10/21 10:33:17;;;;;;;;;;;;;;;20.64;67.04;99047.75;7313238;19;130634;-39
2022/10/21 10:35:46;;;;;;;;;;;;;;;20.75;66.90;99059.78;7312089;19;130693;-40
2022/10/21 10:38:19;;;;;;;;;;;;;;;20.74;67.01;99069.41;7308968;19;130116;-41
2022/10/21 10:40:44;;;;;;;;;;;;;;;20.75;66.73;99065.00;7308878;19;129728;-41
2022/10/21 10:43:29;;;;;;;;;;;;;;;20.73;67.18;99078.22;7311622;19;129420;-39
2022/10/21 10:45:59;;;;;;;;;;;;;;;20.76;67.02;99081.53;7311181;19;131073;-38
2022/10/21 10:48:30;;;;;;;;;;;;;;;20.74;66.86;99063.38;7310206;19;131106;-41
2022/10/21 10:50:56;;;;;;;;;;;;;;;20.76;66.66;99066.66;7312113;19;129528;-38
2022/10/21 10:53:29;;;;;;;;;;;;;;;20.76;66.14;99065.84;7311472;19;130042;-39
2022/10/21 10:56:13;;;;;;;;;;;;;;;20.65;66.73;99054.63;7310892;19;129502;-38
2022/10/21 10:58:42;;;;;;;;;;;;;;;20.72;66.86;99065.31;7307889;19;130408;-39
2022/10/21 11:01:11;;;;;;;;;;;;;;;20.69;66.96;99058.56;7310173;19;129365;-37
2022/10/21 11:03:43;;;;;;;;;;;;;;;20.68;66.98;99063.94;7311144;19;129109;-40
2022/10/21 11:06:16;;;;;;;;;;;;;;;20.74;67.21;99058.16;7311940;19;130147;-39
2022/10/21 11:08:47;;;;;;;;;;;;;;;20.68;66.73;99053.50;7307475;19;131071;-40
2022/10/21 11:11:24;;;;;;;;;;;;;;;20.72;67.23;99058.28;7311402;19;129185;-38
2022/10/21 11:13:51;;;;;;;;;;;;;;;20.74;67.01;99055.53;7311613;19;128984;-36
2022/10/21 11:16:16;;;;;;;;;;;;;;;20.64;66.42;99044.34;7312597;19;130189;-40
2022/10/21 11:18:41;;;;;;;;;;;;;;;20.71;67.08;99058.44;7307214;19;130923;-40
2022/10/21 11:21:30;;;;;;;;;;;;;;;20.74;66.99;99050.31;7310051;19;129393;-36
2022/10/21 11:24:07;;;;;;;;;;;;;;;20.71;66.99;99059.25;7309903;19;129235;-40
2022/10/21 11:26:35;;;;;;;;;;;;;;;20.67;66.71;99055.31;7310924;19;130516;-38
2022/10/21 11:29:10;;;;;;;;;;;;;;;20.67;66.85;99044.88;7311168;19;130603;-39
2022/10/21 11:31:41;;;;;;;;;;;;;;;20.71;67.06;99032.31;7309996;19;129665;-39
2022/10/21 11:34:25;;;;;;;;;;;;;;;20.74;66.45;99032.03;7310314;19;129117;-40
2022/10/21 11:37:04;;;;;;;;;;;;;;;20.69;66.60;99035.06;7308913;19;130170;-36
2022/10/21 11:39:42;;;;;;;;;;;;;;;20.73;66.51;99038.22;7309164;19;132085;-40
2022/10/21 11:42:07;;;;;;;;;;;;;;;20.75;66.82;99036.28;7308701;19;128944;-39
2022/10/21 11:44:38;;;;;;;;;;;;;;;20.66;66.88;99024.09;7310542;19;129269;-37
2022/10/21 11:47:10;;;;;;;;;;;;;;;20.72;66.72;99028.75;7310322;19;130333;-38
2022/10/21 11:49:38;;;;;;;;;;;;;;;20.74;67.12;99037.25;7309267;19;130974;-38
2022/10/21 11:52:08;;;;;;;;;;;;;;;20.73;66.59;99035.59;7309706;19;129651;-39
2022/10/21 11:54:39;;;;;;;;;;;;;;;20.72;66.84;99031.34;7310384;19;129765;-39
2022/10/21 11:57:18;;;;;;;;;;;;;;;20.74;66.47;99016.34;7315597;19;131009;-38
2022/10/21 11:59:54;;;;;;;;;;;;;;;20.74;66.73;99021.59;7315826;19;130308;-38
2022/10/21 12:02:20;;;;;;;;;;;;;;;20.71;66.40;99024.47;7315662;19;129550;-39
2022/10/21 12:04:53;;;;;;;;;;;;;;;20.64;67.06;99005.97;7316774;19;129211;-39
2022/10/21 12:07:28;;;;;;;;;;;;;;;20.72;66.62;99016.47;7315081;19;131057;-39
2022/10/21 12:10:00;;;;;;;;;;;;;;;20.67;66.55;99013.53;7315209;19;130437;-38
2022/10/21 12:12:30;;;;;;;;;;;;;;;20.74;67.02;99032.84;7316382;19;129396;-39
2022/10/21 12:14:57;;;;;;;;;;;;;;;20.76;66.86;99032.69;7318477;19;129172;-38
2022/10/21 12:17:23;;;;;;;;;;;;;;;20.76;66.77;99035.28;7314768;19;129194;-39
2022/10/21 12:19:57;;;;;;;;;;;;;;;20.73;67.09;99038.22;7314071;19;129477;-39
2022/10/21 12:22:24;;;;;;;;;;;;;;;20.74;66.68;99052.94;7315574;19;129447;-39
2022/10/21 12:24:52;;;;;;;;;;;;;;;20.71;66.54;99058.44;7316892;19;129128;-38
2022/10/21 12:27:35;;;;;;;;;;;;;;;20.70;66.40;99056.78;7314808;19;129487;-40
2022/10/21 12:30:09;;;;;;;;;;;;;;;20.62;67.19;99038.44;7315049;19;131021;-41
2022/10/21 12:32:34;;;;;;;;;;;;;;;20.71;66.82;99042.75;7315786;19;129090;-38
2022/10/21 12:35:00;;;;;;;;;;;;;;;20.74;66.56;99042.47;7315402;19;129364;-41
2022/10/21 12:37:40;;;;;;;;;;;;;;;20.69;66.80;99042.91;7315284;19;129124;-39
2022/10/21 12:40:16;;;;;;;;;;;;;;;20.71;66.85;99053.19;7315199;19;130232;-39